createdAt,value
2022-09-27T00:02:15.950Z,13.45
2022-09-27T00:04:46.681Z,10.18
2022-09-27T00:07:17.181Z,4.85
2022-09-27T00:09:47.633Z,7.47
2022-09-27T00:12:18.001Z,6.63
2022-09-27T00:14:48.470Z,3.15
2022-09-27T00:17:18.747Z,13.90
2022-09-27T00:19:49.138Z,7.05
2022-09-27T00:22:19.740Z,11.43
2022-09-27T00:24:50.442Z,9.38
2022-09-27T00:27:21.841Z,12.13
2022-09-27T00:29:53.021Z,14.63
2022-09-27T00:32:23.614Z,10.32
2022-09-27T00:34:53.941Z,18.80
2022-09-27T00:37:24.546Z,12.65
2022-09-27T00:39:54.906Z,23.77
2022-09-27T00:42:25.331Z,25.55
2022-09-27T00:45:14.405Z,31.00
2022-09-27T00:48:01.818Z,36.10
2022-09-27T00:50:38.111Z,45.42
2022-09-27T00:53:11.649Z,58.63
2022-09-27T00:55:51.076Z,67.53
2022-09-27T00:58:24.305Z,68.18
2022-09-27T01:00:58.603Z,73.65
2022-09-27T01:03:59.139Z,66.65
2022-09-27T01:06:30.280Z,60.15
2022-09-27T01:09:00.803Z,55.22
2022-09-27T01:11:44.225Z,74.05
2022-09-27T01:14:53.745Z,59.08
2022-09-27T01:17:54.713Z,44.75
2022-09-27T01:20:34.783Z,35.83
2022-09-27T01:23:32.129Z,36.10
2022-09-27T01:26:11.797Z,24.95
2022-09-27T01:29:26.696Z,30.00
2022-09-27T01:32:31.830Z,24.15
2022-09-27T01:35:16.220Z,21.25
2022-09-27T01:38:04.235Z,24.25
2022-09-27T01:41:01.243Z,22.75
2022-09-27T01:44:12.493Z,20.30
2022-09-27T01:49:49.414Z,17.05
2022-09-27T01:52:23.862Z,20.00
2022-09-27T01:54:59.356Z,12.23
2022-09-27T01:57:42.130Z,17.23
2022-09-27T02:00:20.306Z,21.52
2022-09-27T02:03:22.493Z,20.95
2022-09-27T02:06:36.657Z,21.00
2022-09-27T02:09:30.546Z,19.90
2022-09-27T02:12:18.280Z,24.02
2022-09-27T02:14:55.711Z,18.25
2022-09-27T02:17:55.170Z,21.95
2022-09-27T02:20:32.199Z,20.02
2022-09-27T02:23:21.073Z,20.70
2022-09-27T02:26:06.763Z,19.17
2022-09-27T02:29:01.144Z,15.15
2022-09-27T02:31:37.923Z,22.58
2022-09-27T02:34:15.472Z,23.35
2022-09-27T02:36:46.258Z,24.65
2022-09-27T02:39:19.391Z,22.27
2022-09-27T02:41:53.474Z,26.63
2022-09-27T02:44:23.948Z,24.23
2022-09-27T02:46:54.360Z,21.30
2022-09-27T02:50:03.314Z,23.42
2022-09-27T02:53:17.525Z,29.88
2022-09-27T02:56:06.426Z,21.75
2022-09-27T02:59:19.727Z,24.95
2022-09-27T03:05:31.994Z,20.88
2022-09-27T03:08:02.573Z,18.50
2022-09-27T03:10:33.192Z,35.78
2022-09-27T03:13:05.708Z,23.48
2022-09-27T03:15:36.442Z,26.83
2022-09-27T03:18:07.026Z,29.65
2022-09-27T03:20:56.160Z,23.65
2022-09-27T03:23:28.834Z,31.05
2022-09-27T03:25:59.660Z,40.17
2022-09-27T03:28:31.310Z,44.35
2022-09-27T03:31:01.865Z,32.88
2022-09-27T03:33:52.299Z,40.10
2022-09-27T03:36:23.022Z,32.30
2022-09-27T03:41:23.971Z,23.42
2022-09-27T03:43:54.683Z,28.65
2022-09-27T03:48:55.060Z,26.92
2022-09-27T03:51:25.627Z,38.55
2022-09-27T03:53:56.137Z,32.60
2022-09-27T03:56:26.631Z,33.47
2022-09-27T03:58:57.506Z,30.70
2022-09-27T04:01:30.302Z,26.23
2022-09-27T04:04:13.061Z,22.48
2022-09-27T04:06:43.883Z,23.27
2022-09-27T04:09:14.384Z,27.00
2022-09-27T04:11:59.888Z,22.40
2022-09-27T04:14:30.300Z,19.58
2022-09-27T04:17:18.781Z,17.88
2022-09-27T04:20:09.277Z,16.13
2022-09-27T04:22:45.386Z,16.48
2022-09-27T04:25:16.056Z,19.08
2022-09-27T04:27:47.810Z,16.75
2022-09-27T04:30:18.668Z,15.57
2022-09-27T04:33:07.449Z,22.63
2022-09-27T04:36:14.332Z,25.35
2022-09-27T04:41:32.535Z,17.85
2022-09-27T04:44:03.166Z,12.57
2022-09-27T04:46:34.267Z,16.90
2022-09-27T04:49:05.411Z,14.30
2022-09-27T04:51:38.496Z,19.33
2022-09-27T04:56:46.374Z,24.92
2022-09-27T04:59:17.855Z,22.63
2022-09-27T05:01:48.750Z,26.00
2022-09-27T05:04:32.154Z,28.75
2022-09-27T05:07:03.977Z,27.10
2022-09-27T05:09:43.352Z,27.63
2022-09-27T05:12:15.264Z,27.40
2022-09-27T05:15:06.686Z,27.83
2022-09-27T05:17:55.645Z,18.42
2022-09-27T05:20:46.414Z,20.35
2022-09-27T05:23:22.367Z,30.70
2022-09-27T05:25:53.450Z,22.88
2022-09-27T05:28:25.348Z,31.38
2022-09-27T05:30:55.907Z,19.60
2022-09-27T05:33:26.658Z,27.75
2022-09-27T05:36:16.645Z,22.90
2022-09-27T05:38:47.631Z,40.60
2022-09-27T05:41:18.545Z,32.60
2022-09-27T05:43:49.076Z,25.63
2022-09-27T05:46:19.789Z,25.25
2022-09-27T05:48:51.089Z,23.55
2022-09-27T05:51:22.504Z,24.25
2022-09-27T05:53:55.146Z,24.48
2022-09-27T05:56:30.915Z,28.80
2022-09-27T05:59:27.966Z,18.33
2022-09-27T06:05:04.979Z,26.15
2022-09-27T06:13:07.741Z,30.55
2022-09-27T06:15:45.550Z,25.73
2022-09-27T06:18:19.437Z,17.17
2022-09-27T06:20:52.507Z,18.80
2022-09-27T06:23:25.130Z,15.50
2022-09-27T06:25:57.181Z,17.40
2022-09-27T06:28:53.262Z,16.33
2022-09-27T06:31:24.439Z,14.25
2022-09-27T06:34:17.812Z,18.70
2022-09-27T06:36:52.238Z,25.40
2022-09-27T06:39:23.160Z,14.13
2022-09-27T06:42:05.558Z,20.35
2022-09-27T06:45:00.355Z,26.98
2022-09-27T06:47:42.448Z,16.77
2022-09-27T06:50:32.607Z,15.07
2022-09-27T06:53:03.632Z,15.73
2022-09-27T06:55:34.463Z,17.08
2022-09-27T06:58:23.531Z,19.87
2022-09-27T07:01:12.246Z,11.75
2022-09-27T07:04:00.504Z,27.05
2022-09-27T07:06:50.648Z,17.15
2022-09-27T07:09:24.796Z,14.02
2022-09-27T07:11:56.480Z,19.33
2022-09-27T07:14:28.847Z,21.13
2022-09-27T07:16:59.713Z,18.02
2022-09-27T07:19:35.591Z,13.70
2022-09-27T07:22:06.158Z,13.05
2022-09-27T07:24:36.588Z,10.05
2022-09-27T07:27:08.537Z,12.20
2022-09-27T07:29:38.975Z,13.48
2022-09-27T07:32:10.273Z,10.93
2022-09-27T07:34:41.596Z,13.45
2022-09-27T07:39:43.682Z,11.00
2022-09-27T07:42:16.248Z,8.48
2022-09-27T07:44:50.956Z,12.55
2022-09-27T07:47:30.128Z,9.15
2022-09-27T07:50:11.805Z,7.97
2022-09-27T07:53:02.334Z,10.25
2022-09-27T07:55:57.118Z,15.63
2022-09-27T07:58:31.796Z,6.57
2022-09-27T08:01:04.765Z,11.75
2022-09-27T08:03:36.220Z,12.65
2022-09-27T08:06:06.937Z,12.95
2022-09-27T08:08:37.601Z,6.45
2022-09-27T08:11:16.742Z,6.35
2022-09-27T08:13:51.088Z,9.63
2022-09-27T08:16:25.849Z,8.50
2022-09-27T08:19:18.801Z,6.63
2022-09-27T08:22:07.315Z,11.25
2022-09-27T08:24:46.308Z,8.00
2022-09-27T08:27:43.812Z,5.82
2022-09-27T08:30:26.510Z,7.70
2022-09-27T08:32:58.350Z,6.40
2022-09-27T08:35:30.167Z,9.32
2022-09-27T08:38:02.291Z,7.43
2022-09-27T08:40:57.978Z,7.70
2022-09-27T08:43:31.703Z,7.78
2022-09-27T08:46:26.684Z,6.43
2022-09-27T08:49:11.075Z,7.18
2022-09-27T08:54:30.812Z,8.52
2022-09-27T08:57:11.244Z,10.52
2022-09-27T09:00:03.990Z,13.18
2022-09-27T09:02:35.608Z,4.40
2022-09-27T09:05:16.656Z,5.13
2022-09-27T09:07:59.269Z,8.15
2022-09-27T09:10:51.043Z,6.07
2022-09-27T09:13:49.524Z,11.32
2022-09-27T09:16:32.734Z,7.47
2022-09-27T09:19:20.963Z,7.95
2022-09-27T09:22:33.556Z,8.60
2022-09-27T09:25:41.180Z,9.32
2022-09-27T09:28:11.673Z,10.75
2022-09-27T09:30:54.930Z,9.25
2022-09-27T09:33:54.317Z,7.68
2022-09-27T09:36:36.608Z,8.73
2022-09-27T09:39:18.985Z,6.97
2022-09-27T09:42:09.515Z,13.55
2022-09-27T09:45:17.747Z,9.00
2022-09-27T09:47:59.555Z,8.68
2022-09-27T09:50:43.653Z,7.07
2022-09-27T09:53:22.816Z,5.65
2022-09-27T09:56:14.191Z,6.22
2022-09-27T09:59:06.654Z,5.68
2022-09-27T10:01:49.378Z,10.93
2022-09-27T10:04:25.566Z,6.00
2022-09-27T10:07:01.199Z,5.68
2022-09-27T10:09:36.325Z,6.63
2022-09-27T10:12:32.989Z,7.82
2022-09-27T10:15:07.215Z,7.07
2022-09-27T10:17:43.324Z,6.30
2022-09-27T10:20:58.581Z,5.15
2022-09-27T10:23:30.053Z,5.15
2022-09-27T10:26:27.158Z,5.10
2022-09-27T10:28:57.786Z,6.78
2022-09-27T10:31:47.363Z,4.40
2022-09-27T10:34:41.930Z,8.07
2022-09-27T10:37:12.949Z,4.50
2022-09-27T10:39:54.892Z,4.65
2022-09-27T10:42:37.633Z,5.45
2022-09-27T10:45:30.940Z,7.47
2022-09-27T10:48:20.515Z,4.82
2022-09-27T10:51:02.691Z,6.18
2022-09-27T10:53:53.340Z,4.35
2022-09-27T10:56:34.303Z,9.50
2022-09-27T10:59:06.643Z,4.47
2022-09-27T11:01:54.258Z,7.78
2022-09-27T11:05:28.741Z,12.88
2022-09-27T11:08:01.307Z,3.95
2022-09-27T11:11:08.479Z,6.85
2022-09-27T11:13:40.858Z,7.53
2022-09-27T11:16:56.302Z,5.90
2022-09-27T11:19:30.239Z,6.75
2022-09-27T11:22:18.548Z,6.43
2022-09-27T11:25:16.758Z,5.38
2022-09-27T11:28:16.184Z,4.50
2022-09-27T11:30:54.714Z,5.75
2022-09-27T11:34:18.052Z,4.53
2022-09-27T11:37:14.686Z,5.78
2022-09-27T11:40:01.008Z,6.78
2022-09-27T11:42:53.696Z,8.40
2022-09-27T11:46:13.879Z,9.90
2022-09-27T11:48:49.408Z,9.93
2022-09-27T11:51:35.835Z,8.77
2022-09-27T11:54:34.197Z,14.23
2022-09-27T11:57:20.129Z,11.18
2022-09-27T12:00:10.302Z,7.80
2022-09-27T12:03:07.046Z,5.20
2022-09-27T12:06:07.301Z,4.95
2022-09-27T12:09:04.716Z,13.95
2022-09-27T12:11:50.361Z,7.43
2022-09-27T12:14:31.651Z,13.82
2022-09-27T12:17:09.582Z,7.15
2022-09-27T12:19:45.256Z,11.52
2022-09-27T12:22:53.852Z,15.00
2022-09-27T12:25:21.280Z,5.60
2022-09-27T12:28:21.598Z,12.32
2022-09-27T12:31:28.827Z,4.88
2022-09-27T12:34:05.899Z,7.18
2022-09-27T12:36:42.028Z,6.65
2022-09-27T12:39:18.449Z,9.70
2022-09-27T12:42:03.295Z,13.77
2022-09-27T12:44:47.475Z,4.75
2022-09-27T12:47:35.798Z,6.38
2022-09-27T12:50:17.060Z,8.45
2022-09-27T12:52:53.961Z,7.70
2022-09-27T12:55:55.059Z,11.70
2022-09-27T12:59:03.510Z,11.60
2022-09-27T13:02:11.534Z,6.63
2022-09-27T13:04:45.138Z,4.38
2022-09-27T13:07:45.736Z,4.88
2022-09-27T13:10:27.576Z,3.38
2022-09-27T13:13:02.523Z,8.50
2022-09-27T13:15:38.229Z,4.40
2022-09-27T13:18:30.088Z,2.30
2022-09-27T13:21:00.801Z,3.03
2022-09-27T13:23:52.917Z,2.47
2022-09-27T13:26:34.982Z,2.92
2022-09-27T13:29:24.888Z,3.65
2022-09-27T13:31:56.092Z,2.30
2022-09-27T13:34:56.218Z,2.33
2022-09-27T13:37:47.667Z,11.15
2022-09-27T13:40:30.813Z,7.75
2022-09-27T13:43:14.675Z,2.50
2022-09-27T13:46:10.593Z,3.35
2022-09-27T13:49:03.601Z,5.65
2022-09-27T13:52:02.141Z,2.40
2022-09-27T13:54:58.474Z,2.40
2022-09-27T13:57:48.863Z,11.35
2022-09-27T14:00:45.900Z,2.15
2022-09-27T14:03:39.483Z,8.00
2022-09-27T14:06:15.338Z,1.65
2022-09-27T14:08:50.578Z,8.15
2022-09-27T14:11:36.697Z,4.35
2022-09-27T14:14:14.522Z,3.47
2022-09-27T14:16:49.509Z,1.40
2022-09-27T14:19:26.835Z,3.33
2022-09-27T14:21:58.757Z,2.58
2022-09-27T14:24:38.942Z,2.33
2022-09-27T14:27:32.592Z,5.35
2022-09-27T14:30:21.379Z,2.28
2022-09-27T14:33:06.748Z,1.13
2022-09-27T14:36:09.580Z,1.20
2022-09-27T14:38:42.764Z,3.05
2022-09-27T14:41:28.810Z,1.50
2022-09-27T14:44:00.173Z,2.63
2022-09-27T14:46:34.175Z,3.30
2022-09-27T14:49:24.665Z,6.38
2022-09-27T14:52:00.201Z,2.25
2022-09-27T14:54:35.006Z,1.10
2022-09-27T14:57:08.777Z,1.02
2022-09-27T14:59:45.932Z,1.25
2022-09-27T15:02:27.213Z,1.20
2022-09-27T15:04:57.794Z,3.20
2022-09-27T15:07:29.110Z,5.25
2022-09-27T15:10:00.265Z,2.47
2022-09-27T15:12:31.085Z,0.80
2022-09-27T15:15:01.923Z,1.17
2022-09-27T15:17:45.026Z,1.55
2022-09-27T15:20:36.191Z,2.90
2022-09-27T15:23:07.773Z,1.20
2022-09-27T15:25:46.402Z,4.30
2022-09-27T15:28:21.109Z,1.02
2022-09-27T15:30:59.633Z,5.22
2022-09-27T15:33:35.084Z,1.42
2022-09-27T15:36:11.951Z,6.50
2022-09-27T15:38:48.638Z,1.55
2022-09-27T15:41:22.488Z,3.42
2022-09-27T15:43:54.216Z,0.70
2022-09-27T15:46:24.687Z,3.60
2022-09-27T15:49:16.318Z,1.83
2022-09-27T15:51:52.056Z,3.22
2022-09-27T15:54:24.425Z,0.80
2022-09-27T15:56:59.601Z,1.20
2022-09-27T15:59:33.356Z,3.90
2022-09-27T16:02:11.833Z,1.67
2022-09-27T16:04:42.178Z,2.92
2022-09-27T16:07:13.281Z,0.85
2022-09-27T16:09:44.867Z,1.10
2022-09-27T16:12:15.375Z,1.88
2022-09-27T16:14:45.681Z,1.08
2022-09-27T16:17:16.647Z,0.65
2022-09-27T16:19:47.040Z,3.35
2022-09-27T16:22:17.223Z,6.65
2022-09-27T16:24:51.052Z,1.50
2022-09-27T16:27:28.780Z,0.70
2022-09-27T16:29:59.372Z,2.83
2022-09-27T16:32:30.603Z,1.33
2022-09-27T16:35:01.008Z,0.68
2022-09-27T16:37:31.791Z,1.15
2022-09-27T16:40:02.762Z,3.40
2022-09-27T16:42:33.207Z,1.08
2022-09-27T16:45:08.895Z,0.57
2022-09-27T16:47:40.985Z,1.75
2022-09-27T16:50:34.116Z,1.88
2022-09-27T16:53:06.405Z,1.08
2022-09-27T16:55:38.147Z,0.82
2022-09-27T16:58:10.141Z,2.35
2022-09-27T17:00:43.203Z,0.82
2022-09-27T17:03:13.677Z,1.00
2022-09-27T17:05:44.093Z,3.63
2022-09-27T17:08:14.523Z,6.53
2022-09-27T17:10:48.020Z,1.10
2022-09-27T17:13:18.459Z,1.23
2022-09-27T17:15:49.403Z,4.82
2022-09-27T17:18:19.782Z,3.22
2022-09-27T17:20:50.267Z,1.20
2022-09-27T17:23:21.052Z,1.80
2022-09-27T17:25:51.831Z,3.20
2022-09-27T17:28:22.485Z,2.70
2022-09-27T17:30:54.345Z,2.05
2022-09-27T17:33:25.285Z,2.75
2022-09-27T17:36:03.396Z,0.90
2022-09-27T17:38:33.815Z,3.13
2022-09-27T17:41:12.186Z,0.90
2022-09-27T17:43:54.187Z,3.08
2022-09-27T17:46:27.829Z,1.77
2022-09-27T17:49:17.287Z,1.70
2022-09-27T17:51:53.178Z,1.42
2022-09-27T17:54:25.768Z,1.85
2022-09-27T17:56:57.724Z,0.98
2022-09-27T17:59:28.367Z,1.35
2022-09-27T18:01:58.903Z,1.27
2022-09-27T18:04:29.838Z,2.13
2022-09-27T18:07:00.274Z,0.98
2022-09-27T18:09:33.422Z,9.88
2022-09-27T18:12:04.530Z,2.90
2022-09-27T18:14:35.180Z,4.30
2022-09-27T18:17:05.745Z,0.90
2022-09-27T18:19:36.231Z,6.55
2022-09-27T18:22:06.883Z,2.92
2022-09-27T18:24:37.216Z,4.00
2022-09-27T18:27:07.561Z,1.10
2022-09-27T18:29:38.065Z,4.32
2022-09-27T18:32:08.416Z,0.77
2022-09-27T18:34:39.036Z,1.42
2022-09-27T18:37:09.495Z,5.75
2022-09-27T18:39:41.568Z,1.08
2022-09-27T18:42:11.886Z,1.83
2022-09-27T18:44:42.383Z,3.28
2022-09-27T18:47:12.811Z,1.23
2022-09-27T18:49:43.338Z,0.70
2022-09-27T18:52:13.721Z,1.10
2022-09-27T18:54:45.079Z,1.67
2022-09-27T18:57:15.444Z,5.15
2022-09-27T18:59:46.773Z,1.33
2022-09-27T19:02:17.288Z,2.72
2022-09-27T19:04:47.748Z,4.32
2022-09-27T19:07:18.130Z,1.35
2022-09-27T19:09:48.723Z,1.52
2022-09-27T19:12:18.943Z,5.03
2022-09-27T19:14:49.367Z,14.20
2022-09-27T19:17:19.779Z,0.90
2022-09-27T19:19:52.181Z,2.05
2022-09-27T19:22:22.980Z,5.15
2022-09-27T19:24:53.490Z,0.82
2022-09-27T19:27:23.963Z,2.75
2022-09-27T19:30:00.343Z,2.15
2022-09-27T19:32:30.831Z,2.55
2022-09-27T19:35:01.782Z,3.67
2022-09-27T19:37:32.197Z,1.05
2022-09-27T19:40:02.666Z,0.70
2022-09-27T19:42:33.057Z,1.20
2022-09-27T19:45:06.798Z,1.42
2022-09-27T19:47:39.737Z,7.00
2022-09-27T19:50:10.683Z,1.00
2022-09-27T19:52:41.421Z,0.90
2022-09-27T19:55:12.242Z,3.28
2022-09-27T19:57:43.108Z,1.33
2022-09-27T20:00:13.997Z,6.28
2022-09-27T20:02:44.634Z,4.40
2022-09-27T20:05:15.313Z,2.78
2022-09-27T20:07:49.866Z,1.25
2022-09-27T20:10:20.301Z,1.40
2022-09-27T20:12:52.953Z,8.10
2022-09-27T20:15:23.571Z,7.90
2022-09-27T20:17:54.269Z,1.55
2022-09-27T20:20:25.180Z,2.88
2022-09-27T20:22:55.564Z,4.55
2022-09-27T20:25:27.702Z,8.65
2022-09-27T20:27:58.152Z,6.75
2022-09-27T20:30:28.567Z,3.00
2022-09-27T20:33:17.179Z,4.53
2022-09-27T20:38:26.649Z,2.00
2022-09-27T20:40:59.234Z,1.20
2022-09-27T20:43:29.828Z,4.22
2022-09-27T20:46:08.653Z,3.17
2022-09-27T20:48:39.723Z,1.45
2022-09-27T20:51:12.028Z,7.35
2022-09-27T20:53:43.615Z,7.95
2022-09-27T20:56:20.457Z,3.00
2022-09-27T20:58:52.631Z,10.50
2022-09-27T21:01:24.294Z,8.65
2022-09-27T21:04:15.613Z,5.13
2022-09-27T21:06:46.760Z,3.00
2022-09-27T21:09:20.905Z,4.93
2022-09-27T21:11:53.167Z,9.40
2022-09-27T21:14:23.646Z,4.78
2022-09-27T21:16:54.408Z,3.45
2022-09-27T21:19:24.735Z,6.40
2022-09-27T21:21:55.237Z,4.20
2022-09-27T21:24:25.630Z,3.20
2022-09-27T21:29:26.174Z,7.13
2022-09-27T21:31:56.631Z,6.82
2022-09-27T21:34:26.988Z,4.78
2022-09-27T21:36:57.854Z,3.05
2022-09-27T21:39:28.334Z,1.77
2022-09-27T21:41:58.899Z,6.15
2022-09-27T21:44:29.335Z,1.90
2022-09-27T21:46:59.841Z,0.70
2022-09-27T21:49:31.526Z,6.25
2022-09-27T21:52:02.495Z,8.15
2022-09-27T21:54:32.959Z,1.45
2022-09-27T21:57:04.088Z,9.23
2022-09-27T21:59:34.491Z,3.38
2022-09-27T22:02:04.971Z,4.90
2022-09-27T22:04:35.398Z,1.88
2022-09-27T22:07:05.899Z,6.03
2022-09-27T22:09:36.264Z,0.85
2022-09-27T22:12:07.598Z,2.80
2022-09-27T22:14:37.987Z,8.32
2022-09-27T22:17:08.494Z,1.80
2022-09-27T22:19:38.961Z,2.70
2022-09-27T22:22:09.391Z,4.63
2022-09-27T22:24:39.542Z,1.80
2022-09-27T22:27:10.114Z,2.03
2022-09-27T22:29:40.487Z,3.85
2022-09-27T22:32:10.775Z,5.70
2022-09-27T22:34:41.141Z,3.25
2022-09-27T22:37:11.945Z,3.22
2022-09-27T22:39:42.336Z,1.88
2022-09-27T22:42:12.850Z,15.23
2022-09-27T22:44:43.250Z,4.35
2022-09-27T22:47:14.193Z,3.10
2022-09-27T22:49:44.533Z,8.73
2022-09-27T22:52:15.116Z,1.58
2022-09-27T22:54:45.418Z,6.97
2022-09-27T22:57:16.282Z,2.08
2022-09-27T22:59:46.739Z,2.90
2022-09-27T23:02:17.156Z,5.60
2022-09-27T23:04:47.527Z,1.77
2022-09-27T23:07:18.097Z,2.75
2022-09-27T23:09:48.528Z,3.13
2022-09-27T23:12:18.930Z,0.98
2022-09-27T23:14:49.279Z,2.05
2022-09-27T23:17:21.722Z,3.38
2022-09-27T23:19:52.027Z,4.97
2022-09-27T23:24:52.927Z,7.75
2022-09-27T23:27:41.589Z,8.18
2022-09-27T23:30:33.065Z,2.05
2022-09-27T23:33:03.647Z,0.70
2022-09-27T23:35:35.191Z,4.50
2022-09-27T23:38:06.082Z,7.40
2022-09-27T23:40:37.823Z,2.58
2022-09-27T23:43:08.729Z,5.07
2022-09-27T23:45:39.718Z,4.95
2022-09-27T23:48:10.189Z,3.08
2022-09-27T23:50:41.634Z,2.88
2022-09-27T23:53:12.058Z,3.03
2022-09-27T23:55:42.407Z,4.10
